createdAt,value
2022-11-27T00:03:26.039Z,71.48
2022-11-27T00:08:47.137Z,72.23
2022-11-27T00:14:10.734Z,72.04
2022-11-27T00:19:31.332Z,71.86
2022-11-27T00:24:52.227Z,71.80
2022-11-27T00:30:14.039Z,71.88
2022-11-27T00:35:34.837Z,71.82
2022-11-27T00:40:58.500Z,71.37
2022-11-27T00:46:24.026Z,72.27
2022-11-27T00:51:48.877Z,71.85
2022-11-27T00:57:09.709Z,72.39
2022-11-27T01:02:30.509Z,72.31
2022-11-27T01:07:51.472Z,71.85
2022-11-27T01:13:12.018Z,71.77
2022-11-27T01:18:33.404Z,72.00
2022-11-27T01:23:54.557Z,71.89
2022-11-27T01:29:15.457Z,71.44
2022-11-27T01:34:35.983Z,71.51
2022-11-27T01:39:56.965Z,71.44
2022-11-27T01:45:19.927Z,71.79
2022-11-27T01:50:40.920Z,72.17
2022-11-27T01:56:01.758Z,71.74
2022-11-27T02:01:24.460Z,71.92
2022-11-27T02:06:45.510Z,71.44
2022-11-27T02:12:11.285Z,71.24
2022-11-27T02:17:34.869Z,71.30
2022-11-27T02:23:07.985Z,71.05
2022-11-27T02:28:28.930Z,71.36
2022-11-27T02:33:52.342Z,71.42
2022-11-27T02:39:16.807Z,71.79
2022-11-27T02:44:41.830Z,71.42
2022-11-27T02:50:03.856Z,70.90
2022-11-27T02:55:27.110Z,70.67
2022-11-27T03:00:49.113Z,70.56
2022-11-27T03:06:11.696Z,71.73
2022-11-27T03:11:32.388Z,72.10
2022-11-27T03:16:52.961Z,70.62
2022-11-27T03:22:13.756Z,70.16
2022-11-27T03:27:36.019Z,70.04
2022-11-27T03:32:57.003Z,70.33
2022-11-27T03:38:17.478Z,70.10
2022-11-27T03:43:46.710Z,70.35
2022-11-27T03:49:36.732Z,69.67
2022-11-27T03:55:06.779Z,70.45
2022-11-27T04:00:31.763Z,70.87
2022-11-27T04:05:52.721Z,71.42
2022-11-27T04:11:14.397Z,71.23
2022-11-27T04:16:35.086Z,71.54
2022-11-27T04:21:56.038Z,71.10
2022-11-27T04:27:16.807Z,71.05
2022-11-27T04:32:37.454Z,71.07
2022-11-27T04:37:58.260Z,71.09
2022-11-27T04:43:19.235Z,70.62
2022-11-27T04:48:39.843Z,70.46
2022-11-27T04:54:00.315Z,70.53
2022-11-27T04:59:21.175Z,70.78
2022-11-27T05:04:41.846Z,70.81
2022-11-27T05:10:03.266Z,70.73
2022-11-27T05:15:24.143Z,70.56
2022-11-27T05:20:45.073Z,70.02
2022-11-27T05:26:05.820Z,70.28
2022-11-27T05:31:27.150Z,70.92
2022-11-27T05:36:47.930Z,69.82
2022-11-27T05:42:08.843Z,69.95
2022-11-27T05:47:29.497Z,69.52
2022-11-27T05:52:50.448Z,69.56
2022-11-27T05:58:10.933Z,69.94
2022-11-27T06:03:32.217Z,70.72
2022-11-27T06:08:52.722Z,70.68
2022-11-27T06:14:13.651Z,70.15
2022-11-27T06:19:34.525Z,69.96
2022-11-27T06:24:55.174Z,69.76
2022-11-27T06:30:16.103Z,69.76
2022-11-27T06:35:36.771Z,69.61
2022-11-27T06:41:01.628Z,69.45
2022-11-27T06:46:23.506Z,69.75
2022-11-27T06:51:44.466Z,69.54
2022-11-27T06:57:05.392Z,70.33
2022-11-27T07:02:26.233Z,69.85
2022-11-27T07:07:47.041Z,70.52
2022-11-27T07:13:09.088Z,70.28
2022-11-27T07:18:30.529Z,70.25
2022-11-27T07:23:51.312Z,70.22
2022-11-27T07:29:12.229Z,70.47
2022-11-27T07:34:33.085Z,70.33
2022-11-27T07:40:02.558Z,70.52
2022-11-27T07:45:24.180Z,70.96
2022-11-27T07:50:44.777Z,71.10
2022-11-27T07:56:06.101Z,70.57
2022-11-27T08:01:26.935Z,71.09
2022-11-27T08:06:48.570Z,71.22
2022-11-27T08:12:09.216Z,70.91
2022-11-27T08:17:30.066Z,71.36
2022-11-27T08:22:50.778Z,71.17
2022-11-27T08:28:11.328Z,70.85
2022-11-27T08:33:32.672Z,71.78
2022-11-27T08:38:56.040Z,71.46
2022-11-27T08:44:16.892Z,71.62
2022-11-27T08:49:40.565Z,72.38
2022-11-27T08:55:03.795Z,71.87
2022-11-27T09:00:27.948Z,72.39
2022-11-27T09:05:49.153Z,71.93
2022-11-27T09:11:10.828Z,72.29
2022-11-27T09:16:31.896Z,72.50
2022-11-27T09:21:52.747Z,72.36
2022-11-27T09:27:13.864Z,71.71
2022-11-27T09:32:34.750Z,72.63
2022-11-27T09:37:55.444Z,73.49
2022-11-27T09:43:16.996Z,72.88
2022-11-27T09:48:40.202Z,72.49
2022-11-27T09:54:05.704Z,73.23
2022-11-27T09:59:30.996Z,73.30
2022-11-27T10:05:12.976Z,73.38
2022-11-27T10:10:32.483Z,73.89
2022-11-27T10:16:03.886Z,74.20
2022-11-27T10:21:24.529Z,74.04
2022-11-27T10:26:49.690Z,74.12
2022-11-27T10:32:46.712Z,74.12
2022-11-27T10:37:55.833Z,74.64
2022-11-27T10:43:19.584Z,74.48
2022-11-27T10:48:40.888Z,74.30
2022-11-27T10:54:03.827Z,74.46
2022-11-27T10:59:33.155Z,74.48
2022-11-27T11:05:16.612Z,74.23
2022-11-27T11:10:37.928Z,74.66
2022-11-27T11:16:14.487Z,74.15
2022-11-27T11:21:40.553Z,74.37
2022-11-27T11:27:04.642Z,74.76
2022-11-27T11:32:30.467Z,74.42
2022-11-27T11:37:52.602Z,74.03
2022-11-27T11:43:29.989Z,74.36
2022-11-27T11:48:58.754Z,75.00
2022-11-27T11:54:43.082Z,74.87
2022-11-27T12:00:16.923Z,75.03
2022-11-27T12:05:37.551Z,74.74
2022-11-27T12:11:05.591Z,74.20
2022-11-27T12:16:26.571Z,74.01
2022-11-27T12:21:54.443Z,73.92
2022-11-27T12:27:23.532Z,73.88
2022-11-27T12:32:50.255Z,73.90
2022-11-27T12:38:19.071Z,73.95
2022-11-27T12:43:48.479Z,73.78
2022-11-27T12:49:16.759Z,73.65
2022-11-27T12:54:51.125Z,73.46
2022-11-27T13:00:31.897Z,73.55
2022-11-27T13:05:55.434Z,73.46
2022-11-27T13:11:17.438Z,77.49
2022-11-27T13:16:41.298Z,76.52
2022-11-27T13:22:09.434Z,73.86
2022-11-27T13:27:32.759Z,72.78
2022-11-27T13:32:58.024Z,72.66
2022-11-27T13:38:23.963Z,73.19
2022-11-27T13:43:45.409Z,73.25
2022-11-27T13:49:06.613Z,73.68
2022-11-27T13:54:29.192Z,73.49
2022-11-27T14:00:05.236Z,73.61
2022-11-27T14:05:36.572Z,74.04
2022-11-27T14:11:12.923Z,73.49
2022-11-27T14:16:35.072Z,73.22
2022-11-27T14:21:55.684Z,73.57
2022-11-27T14:27:18.290Z,73.32
2022-11-27T14:32:39.325Z,73.63
2022-11-27T14:38:10.173Z,73.93
2022-11-27T14:43:30.962Z,73.55
2022-11-27T14:48:58.858Z,75.63
2022-11-27T14:54:25.583Z,77.49
2022-11-27T14:59:46.394Z,72.67
2022-11-27T15:05:07.556Z,71.80
2022-11-27T15:10:39.847Z,72.01
2022-11-27T15:16:00.733Z,71.92
2022-11-27T15:21:25.109Z,71.35
2022-11-27T15:26:46.150Z,71.67
2022-11-27T15:32:23.429Z,72.13
2022-11-27T15:37:44.700Z,71.65
2022-11-27T15:43:15.323Z,71.50
2022-11-27T15:48:36.752Z,76.30
2022-11-27T15:53:57.670Z,71.53
2022-11-27T15:59:20.767Z,70.49
2022-11-27T16:04:42.795Z,70.87
2022-11-27T16:10:03.678Z,71.31
2022-11-27T16:15:28.718Z,70.92
2022-11-27T16:20:52.166Z,70.97
2022-11-27T16:26:15.064Z,71.85
2022-11-27T16:31:35.849Z,70.41
2022-11-27T16:36:56.859Z,69.83
2022-11-27T16:42:17.611Z,70.51
2022-11-27T16:47:38.979Z,70.55
2022-11-27T16:52:59.999Z,69.87
2022-11-27T16:58:20.879Z,70.86
2022-11-27T17:03:42.298Z,71.41
2022-11-27T17:09:04.925Z,70.40
2022-11-27T17:14:27.090Z,70.59
2022-11-27T17:19:49.215Z,71.10
2022-11-27T17:25:11.659Z,70.87
2022-11-27T17:30:36.446Z,70.55
2022-11-27T17:36:00.130Z,70.53
2022-11-27T17:41:21.502Z,70.36
2022-11-27T17:46:48.395Z,70.88
2022-11-27T17:52:09.512Z,71.65
2022-11-27T17:57:31.766Z,72.18
2022-11-27T18:02:52.506Z,70.36
2022-11-27T18:08:13.345Z,70.44
2022-11-27T18:13:34.353Z,71.11
2022-11-27T18:18:55.960Z,71.13
2022-11-27T18:24:25.097Z,70.77
2022-11-27T18:29:47.257Z,70.81
2022-11-27T18:35:08.271Z,69.83
2022-11-27T18:40:29.072Z,70.77
2022-11-27T18:45:51.926Z,70.49
2022-11-27T18:51:19.127Z,69.86
2022-11-27T18:56:40.071Z,69.82
2022-11-27T19:02:03.157Z,70.37
2022-11-27T19:07:26.450Z,69.60
2022-11-27T19:12:47.204Z,69.67
2022-11-27T19:18:08.128Z,69.66
2022-11-27T19:23:28.821Z,70.20
2022-11-27T19:28:50.598Z,70.37
2022-11-27T19:34:12.068Z,70.24
2022-11-27T19:39:33.630Z,70.65
2022-11-27T19:44:55.934Z,70.94
2022-11-27T19:50:17.322Z,71.21
2022-11-27T19:55:38.724Z,70.63
2022-11-27T20:01:13.870Z,71.46
2022-11-27T20:06:34.961Z,71.37
2022-11-27T20:11:56.414Z,71.42
2022-11-27T20:17:18.505Z,73.45
2022-11-27T20:22:40.789Z,71.17
2022-11-27T20:28:02.051Z,71.80
2022-11-27T20:33:23.779Z,72.02
2022-11-27T20:38:45.857Z,76.57
2022-11-27T20:44:06.364Z,72.77
2022-11-27T20:49:27.129Z,71.29
2022-11-27T20:54:47.747Z,71.70
2022-11-27T21:00:09.900Z,71.24
2022-11-27T21:05:31.594Z,72.03
2022-11-27T21:10:51.986Z,72.28
2022-11-27T21:16:13.962Z,72.41
2022-11-27T21:21:34.894Z,71.94
2022-11-27T21:26:55.668Z,71.82
2022-11-27T21:32:18.142Z,72.02
2022-11-27T21:37:39.989Z,71.06
2022-11-27T21:43:01.380Z,71.01
2022-11-27T21:48:22.330Z,71.08
2022-11-27T21:53:43.842Z,70.81
2022-11-27T21:59:11.642Z,71.07
2022-11-27T22:04:32.456Z,71.00
2022-11-27T22:09:52.964Z,71.55
2022-11-27T22:15:13.790Z,71.05
2022-11-27T22:20:35.476Z,71.30
2022-11-27T22:26:00.105Z,71.61
2022-11-27T22:31:25.133Z,71.74
2022-11-27T22:36:46.084Z,71.27
2022-11-27T22:42:07.425Z,71.68
2022-11-27T22:47:28.145Z,71.56
2022-11-27T22:52:49.125Z,71.15
2022-11-27T22:58:09.816Z,72.04
2022-11-27T23:03:32.202Z,70.58
2022-11-27T23:08:53.384Z,70.95
2022-11-27T23:14:14.467Z,71.05
2022-11-27T23:19:35.344Z,71.03
2022-11-27T23:24:56.149Z,71.39
2022-11-27T23:30:16.889Z,70.96
2022-11-27T23:35:37.411Z,71.21
2022-11-27T23:41:07.256Z,71.48
2022-11-27T23:46:28.755Z,70.84
2022-11-27T23:51:49.645Z,71.19
2022-11-27T23:57:10.190Z,71.31
